Airport View

Enter AWOS ICAO identifier for current METAR.

ex. KFNL

KBRY 030055Z AUTO 23003KT 10SM CLR 26/15 A3000 RMK AO1

3 Jun 2020 00:48

Frequency: 119.925

Phone: 502-348-1867

Other Area AWOS: K6I2 - KEKX - KSDF - KLOU

TAF KFTK 021700Z 0217/0323 24010G15KT 9999 FEW120 QNH3000INS BECMG 0300/0301 23009KT 9999 FEW090 QNH2992INS BECMG 0314/0315 24012G18KT 9999 SKC QNH2984INS TX31/0221Z TN18/0310Z